Time;durP1;ratioP1;P1;durP2;ratioP2;P2;SDS_P1;SDS_P2;PMS_P1;PMS_P2;Temp;Humidity;BMP_temperature;BMP_pressure;BME280_temperature;BME280_humidity;BME280_pressure;Samples;Min_cycle;Max_cycle;Signal;HPM_P1;HPM_P2
2022/02/07 00:00:23;;;;;;;2.17;0.50;;;;;;;-139.48;100.00;61774.03;4996335;28;20453;-75
2022/02/07 00:05:58;;;;;;;0.90;0.45;;;;;;;-139.48;100.00;61774.03;4996269;28;20049;-74
2022/02/07 00:08:43;;;;;;;2.92;0.70;;;;;;;-139.48;100.00;61774.03;4996638;28;20513;-75
2022/02/07 00:11:27;;;;;;;2.45;0.60;;;;;;;-139.48;100.00;61774.03;4996632;28;20049;-75
2022/02/07 00:14:12;;;;;;;1.42;0.80;;;;;;;-139.48;100.00;61774.03;4996474;28;20097;-74
2022/02/07 00:16:56;;;;;;;0.52;0.38;;;;;;;-139.48;100.00;61774.03;4995839;28;20100;-75
2022/02/07 00:19:39;;;;;;;1.15;0.70;;;;;;;-139.48;100.00;61774.03;4996995;28;20053;-75
2022/02/07 00:22:23;;;;;;;0.40;0.40;;;;;;;-139.48;100.00;61774.03;4996674;28;20061;-75
2022/02/07 00:25:08;;;;;;;1.38;0.60;;;;;;;-139.48;100.00;61774.03;4996260;28;20049;-75
2022/02/07 00:27:52;;;;;;;4.32;0.50;;;;;;;-139.48;100.00;61774.03;4995483;28;20545;-75
2022/02/07 00:30:36;;;;;;;2.55;1.23;;;;;;;-139.48;100.00;61774.03;4995496;28;20072;-75
2022/02/07 00:33:20;;;;;;;0.57;0.45;;;;;;;-139.48;100.00;61774.03;4996161;28;20077;-75
2022/02/07 00:36:04;;;;;;;1.27;0.65;;;;;;;-139.48;100.00;61774.03;4995452;28;20135;-75
2022/02/07 00:38:53;;;;;;;2.90;0.50;;;;;;;-139.48;100.00;61774.03;4995114;28;20076;-74
2022/02/07 00:41:56;;;;;;;2.28;1.13;;;;;;;-139.48;100.00;61774.03;4995227;28;20141;-76
2022/02/07 00:44:40;;;;;;;3.53;0.50;;;;;;;-139.48;100.00;61774.03;4996296;28;20057;-75
2022/02/07 00:47:24;;;;;;;;;;;;;;;-139.48;100.00;61774.03;4996616;28;20053;-74
2022/02/07 00:50:08;;;;;;;3.10;0.77;;;;;;;-139.48;100.00;61774.03;4996079;28;19940;-75
2022/02/07 00:52:52;;;;;;;;;;;;;;;-139.48;100.00;61774.03;4996293;28;20088;-75
2022/02/07 00:55:36;;;;;;;0.67;0.60;;;;;;;-139.48;100.00;61774.03;4981259;28;20424;-75
2022/02/07 00:58:20;;;;;;;0.73;0.57;;;;;;;-139.48;100.00;61774.03;4994754;28;20352;-75
2022/02/07 01:01:04;;;;;;;2.97;0.80;;;;;;;-139.48;100.00;61774.03;4994718;28;20560;-75
2022/02/07 01:03:49;;;;;;;9.02;1.10;;;;;;;-139.48;100.00;61774.03;4994933;28;20421;-75
2022/02/07 01:06:32;;;;;;;2.17;0.90;;;;;;;-139.48;100.00;61774.03;4994873;28;20589;-75
2022/02/07 01:09:20;;;;;;;;;;;;;;;-139.48;100.00;61774.03;4996336;28;20075;-75
2022/02/07 01:12:13;;;;;;;1.05;0.65;;;;;;;-139.48;100.00;61774.03;4995873;28;19931;-74
2022/02/07 01:15:06;;;;;;;2.63;0.65;;;;;;;-139.48;100.00;61774.03;4995608;28;20101;-76
2022/02/07 01:56:28;;;;;;;7.60;1.42;;;;;;;-139.48;100.00;61774.03;4994970;28;20418;-76
2022/02/07 01:59:13;;;;;;;2.40;0.90;;;;;;;-139.48;100.00;61774.03;4993845;28;20041;-76
2022/02/07 02:01:57;;;;;;;3.78;1.35;;;;;;;-139.48;100.00;61774.03;4994754;28;20057;-75
2022/02/07 02:04:41;;;;;;;;;;;;;;;-139.48;100.00;61774.03;4994065;28;20109;-76
2022/02/07 02:07:25;;;;;;;9.23;1.50;;;;;;;-139.48;100.00;61774.03;4993878;28;19939;-76
2022/02/07 02:10:10;;;;;;;4.68;1.67;;;;;;;-139.48;100.00;61774.03;4994374;28;20045;-75
2022/02/07 02:13:02;;;;;;;6.30;1.90;;;;;;;-139.48;100.00;61774.03;4993677;28;20049;-75
2022/02/07 02:15:58;;;;;;;4.93;1.48;;;;;;;-139.48;100.00;61774.03;4993805;28;20105;-76
2022/02/07 02:36:35;;;;;;;7.70;1.67;;;;;;;-139.48;100.00;61774.03;4992829;28;20101;-76
2022/02/07 02:48:19;;;;;;;4.70;1.55;;;;;;;-139.48;100.00;61774.03;4993865;28;20125;-76
2022/02/07 02:51:07;;;;;;;7.50;1.60;;;;;;;-139.48;100.00;61774.03;4992875;28;20065;-76
2022/02/07 02:53:51;;;;;;;4.85;1.73;;;;;;;-139.48;100.00;61774.03;4992471;28;20052;-76
2022/02/07 02:56:35;;;;;;;;;;;;;;;-139.48;100.00;61774.03;4994049;28;20049;-76
2022/02/07 02:59:19;;;;;;;5.50;1.53;;;;;;;-139.48;100.00;61774.03;4992789;28;19925;-76
2022/02/07 03:02:03;;;;;;;3.83;1.35;;;;;;;-139.48;100.00;61774.03;4992683;28;20546;-76
2022/02/07 03:04:46;;;;;;;4.40;1.25;;;;;;;-139.48;100.00;61774.03;4992416;28;20069;-76
2022/02/07 03:07:30;;;;;;;3.75;1.60;;;;;;;-139.48;100.00;61774.03;4992557;28;20048;-76
2022/02/07 03:10:23;;;;;;;7.10;1.20;;;;;;;-139.48;100.00;61774.03;4993441;28;20073;-76
2022/02/07 03:13:33;;;;;;;3.50;1.20;;;;;;;-139.48;100.00;61774.03;4979742;28;20041;-76
2022/02/07 03:19:22;;;;;;;8.50;1.42;;;;;;;-139.48;100.00;61774.03;4992636;28;20101;-77
2022/02/07 03:22:06;;;;;;;;;;;;;;;-139.48;100.00;61774.03;4992781;28;20124;-76
2022/02/07 03:24:51;;;;;;;4.03;2.10;;;;;;;-139.48;100.00;61774.03;4992049;28;19968;-76
2022/02/07 03:27:35;;;;;;;;;;;;;;;-139.48;100.00;61774.03;4993957;28;20042;-77
2022/02/07 03:30:19;;;;;;;3.25;0.95;;;;;;;-139.48;100.00;61774.03;4993018;28;20031;-76
2022/02/07 03:33:03;;;;;;;;;;;;;;;-139.48;100.00;61774.03;4992768;28;20475;-75
2022/02/07 03:35:47;;;;;;;1.02;0.43;;;;;;;-139.48;100.00;61774.03;4978553;28;19920;-76
2022/02/07 03:38:31;;;;;;;1.90;0.47;;;;;;;-139.48;100.00;61774.03;4992243;28;20053;-76
2022/02/07 03:41:15;;;;;;;0.52;0.40;;;;;;;-139.48;100.00;61774.03;4992069;28;20054;-75
2022/02/07 03:43:59;;;;;;;1.08;0.50;;;;;;;-139.48;100.00;61774.03;4993231;28;20053;-76
2022/02/07 03:46:43;;;;;;;2.58;0.75;;;;;;;-139.48;100.00;61774.03;4992085;28;20052;-76
2022/02/07 03:49:27;;;;;;;;;;;;;;;-139.48;100.00;61774.03;4993890;28;20046;-75
2022/02/07 03:52:11;;;;;;;1.02;0.52;;;;;;;-139.48;100.00;61774.03;4991983;28;19921;-76
2022/02/07 03:54:55;;;;;;;;;;;;;;;-139.48;100.00;61774.03;4992370;28;20049;-76
2022/02/07 03:57:39;;;;;;;1.00;0.60;;;;;;;-139.48;100.00;61774.03;4978223;28;19995;-76
2022/02/07 04:00:23;;;;;;;2.80;0.70;;;;;;;-139.48;100.00;61774.03;4992086;28;20050;-76
2022/02/07 04:03:09;;;;;;;3.97;0.50;;;;;;;-139.48;100.00;61774.03;4992990;28;20092;-76
2022/02/07 04:06:03;;;;;;;0.60;0.50;;;;;;;-139.48;100.00;61774.03;4993284;28;20389;-76
2022/02/07 04:08:50;;;;;;;3.17;0.77;;;;;;;-139.48;100.00;61774.03;4992217;28;20163;-76
2022/02/07 04:11:40;;;;;;;1.27;0.70;;;;;;;-139.48;100.00;61774.03;4991732;28;20057;-76
2022/02/07 04:14:25;;;;;;;4.13;0.70;;;;;;;-139.48;100.00;61774.03;4991680;28;20104;-76
2022/02/07 04:17:13;;;;;;;3.33;0.70;;;;;;;-139.48;100.00;61774.03;4978237;28;20556;-76
2022/02/07 04:19:59;;;;;;;3.97;0.80;;;;;;;-139.48;100.00;61774.03;4991999;28;20061;-76
2022/02/07 04:22:43;;;;;;;1.60;0.90;;;;;;;-139.48;100.00;61774.03;4991629;28;20052;-76
2022/02/07 04:25:27;;;;;;;0.93;0.60;;;;;;;-139.48;100.00;61774.03;4991370;28;20409;-76
2022/02/07 04:28:12;;;;;;;2.53;0.80;;;;;;;-139.48;100.00;61774.03;4992906;28;20157;-76
2022/02/07 04:30:55;;;;;;;2.65;1.00;;;;;;;-139.48;100.00;61774.03;4992054;28;20045;-76
2022/02/07 04:33:39;;;;;;;;;;;;;;;-139.48;100.00;61774.03;4993155;28;20053;-76
2022/02/07 04:36:23;;;;;;;2.97;0.90;;;;;;;-139.48;100.00;61774.03;4992833;28;19965;-76
2022/02/07 04:39:07;;;;;;;;;;;;;;;-139.48;100.00;61774.03;4992071;28;20529;-75
2022/02/07 04:41:54;;;;;;;5.43;1.00;;;;;;;-139.48;100.00;61774.03;4991522;28;20286;-75
2022/02/07 04:45:10;;;;;;;10.38;1.27;;;;;;;-139.48;100.00;61774.03;4996527;28;20132;-76
2022/02/07 04:50:40;;;;;;;7.95;1.40;;;;;;;-139.48;100.00;61774.03;4996118;28;20498;-76
2022/02/07 04:53:39;;;;;;;5.00;1.70;;;;;;;-139.48;100.00;61774.03;4996035;28;20414;-76
2022/02/07 04:59:12;;;;;;;;;;;;;;;-139.48;100.00;61774.03;4996313;28;20149;-76
2022/02/07 05:02:07;;;;;;;5.95;1.08;;;;;;;-139.48;100.00;61774.03;4995806;28;19925;-76
2022/02/07 05:05:08;;;;;;;4.13;1.27;;;;;;;-139.48;100.00;61774.03;4995617;28;20041;-76
2022/02/07 05:13:54;;;;;;;5.32;1.48;;;;;;;-139.48;100.00;61774.03;4995792;28;20508;-76
2022/02/07 05:16:39;;;;;;;4.65;1.70;;;;;;;-139.48;100.00;61774.03;4995610;28;20073;-76
2022/02/07 05:19:23;;;;;;;9.02;1.88;;;;;;;-139.48;100.00;61774.03;4994981;28;20049;-76
2022/02/07 05:22:07;;;;;;;3.92;1.50;;;;;;;-139.48;100.00;61774.03;4995506;28;20057;-76
2022/02/07 05:24:51;;;;;;;;;;;;;;;-139.48;100.00;61774.03;4994579;28;20584;-76
2022/02/07 05:27:35;;;;;;;2.50;1.48;;;;;;;-139.48;100.00;61774.03;4995493;28;19988;-76
2022/02/07 05:30:19;;;;;;;;;;;;;;;-139.48;100.00;61774.03;4994764;28;20505;-76
2022/02/07 05:33:03;;;;;;;8.98;1.63;;;;;;;-139.48;100.00;61774.03;4994490;28;19937;-75
2022/02/07 05:35:47;;;;;;;4.88;1.42;;;;;;;-139.48;100.00;61774.03;4980633;28;20492;-76
2022/02/07 05:38:33;;;;;;;;;;;;;;;-139.48;100.00;61774.03;4995789;28;20100;-76
2022/02/07 05:41:18;;;;;;;3.90;1.40;;;;;;;-139.48;100.00;61774.03;4995071;28;20392;-76
2022/02/07 05:44:03;;;;;;;7.80;1.38;;;;;;;-139.48;100.00;61774.03;4994193;28;20112;-76
2022/02/07 05:46:47;;;;;;;2.08;1.17;;;;;;;-139.48;100.00;61774.03;4994247;28;20402;-76
2022/02/07 05:49:31;;;;;;;;;;;;;;;-139.48;100.00;61774.03;4994659;28;20513;-77
2022/02/07 05:52:15;;;;;;;9.02;1.50;;;;;;;-139.48;100.00;61774.03;4994693;28;19936;-76
2022/02/07 05:54:59;;;;;;;;;;;;;;;-139.48;100.00;61774.03;4995028;28;20470;-76
2022/02/07 05:57:43;;;;;;;5.05;1.17;;;;;;;-139.48;100.00;61774.03;4980150;28;19968;-76
2022/02/07 06:00:32;;;;;;;4.22;1.60;;;;;;;-139.48;100.00;61774.03;5008010;28;20048;-76
2022/02/07 06:03:16;;;;;;;9.82;1.48;;;;;;;-139.48;100.00;61774.03;4994908;28;20102;-76
2022/02/07 06:06:01;;;;;;;7.50;1.35;;;;;;;-139.48;100.00;61774.03;4980186;28;20073;-75
2022/02/07 06:08:45;;;;;;;7.13;1.52;;;;;;;-139.48;100.00;61774.03;4993817;28;20132;-76
2022/02/07 06:11:29;;;;;;;5.97;1.55;;;;;;;-139.48;100.00;61774.03;4994784;28;20104;-76
2022/02/07 06:14:12;;;;;;;;;;;;;;;-139.48;100.00;61774.03;4995014;28;20481;-76
2022/02/07 06:16:56;;;;;;;5.38;1.35;;;;;;;-139.48;100.00;61774.03;4979851;28;20364;-77
2022/02/07 06:19:41;;;;;;;3.92;1.33;;;;;;;-139.48;100.00;61774.03;4994619;28;20047;-76
2022/02/07 06:22:28;;;;;;;7.40;1.80;;;;;;;-139.48;100.00;61774.03;4993474;28;20052;-76
2022/02/07 06:25:14;;;;;;;3.70;1.60;;;;;;;-139.48;100.00;61774.03;4994342;28;20053;-76
2022/02/07 06:27:58;;;;;;;3.47;1.52;;;;;;;-139.48;100.00;61774.03;4993775;28;20492;-77
2022/02/07 06:30:42;;;;;;;8.98;1.75;;;;;;;-139.48;100.00;61774.03;4993825;28;20159;-76
2022/02/07 06:33:25;;;;;;;;;;;;;;;-139.48;100.00;61774.03;4993937;28;20054;-77
2022/02/07 06:36:09;;;;;;;11.27;1.60;;;;;;;-139.48;100.00;61774.03;4993628;28;19972;-77
2022/02/07 06:38:54;;;;;;;6.90;1.95;;;;;;;-139.48;100.00;61774.03;4993700;28;20160;-77
2022/02/07 06:41:42;;;;;;;2.05;1.30;;;;;;;-139.48;100.00;61774.03;4993247;28;20052;-77
2022/02/07 06:44:27;;;;;;;9.88;1.67;;;;;;;-139.48;100.00;61774.03;4993293;28;20057;-77
2022/02/07 06:47:11;;;;;;;16.52;1.50;;;;;;;-139.48;100.00;61774.03;4993723;28;20049;-76
2022/02/07 06:49:55;;;;;;;7.97;1.75;;;;;;;-139.48;100.00;61774.03;4994461;28;20053;-77
2022/02/07 06:52:39;;;;;;;3.85;1.73;;;;;;;-139.48;100.00;61774.03;4993203;28;20060;-77
2022/02/07 06:55:23;;;;;;;;;;;;;;;-139.48;100.00;61774.03;4994692;28;20053;-76
2022/02/07 06:58:07;;;;;;;7.90;2.00;;;;;;;-139.48;100.00;61774.03;4993303;28;19929;-77
2022/02/07 07:00:51;;;;;;;;;;;;;;;-139.48;100.00;61774.03;4993386;28;20414;-77
2022/02/07 07:03:37;;;;;;;9.25;1.95;;;;;;;-139.48;100.00;61774.03;4993320;28;19920;-77
2022/02/07 07:06:21;;;;;;;5.30;1.75;;;;;;;-139.48;100.00;61774.03;4993515;28;20403;-77
2022/02/07 07:09:09;;;;;;;6.97;2.38;;;;;;;-139.48;100.00;61774.03;4979436;28;20046;-77
2022/02/07 07:12:01;;;;;;;6.13;2.28;;;;;;;-139.48;100.00;61774.03;4993241;28;20053;-76
2022/02/07 07:14:57;;;;;;;8.55;2.15;;;;;;;-139.48;100.00;61774.03;4993326;28;20073;-77
2022/02/07 07:17:41;;;;;;;6.00;1.90;;;;;;;-139.48;100.00;61774.03;4994181;28;20523;-76
2022/02/07 07:20:25;;;;;;;10.57;1.95;;;;;;;-139.48;100.00;61774.03;4993319;28;20049;-77
2022/02/07 07:23:09;;;;;;;;;;;;;;;-139.48;100.00;61774.03;4993539;28;20104;-76
2022/02/07 07:25:53;;;;;;;7.65;1.88;;;;;;;-139.48;100.00;61774.03;4992498;28;19925;-76
2022/02/07 07:28:39;;;;;;;;;;;;;;;-139.48;100.00;61774.03;4993077;28;20091;-76
2022/02/07 07:31:26;;;;;;;14.93;1.70;;;;;;;-139.48;100.00;61774.03;4992574;28;19920;-75
2022/02/07 07:34:10;;;;;;;6.32;1.90;;;;;;;-139.48;100.00;61774.03;4992243;28;20096;-76
2022/02/07 07:36:53;;;;;;;;;;;;;;;-139.48;100.00;61774.03;4993423;28;20049;-76
2022/02/07 07:39:37;;;;;;;4.40;2.00;;;;;;;-139.48;100.00;61774.03;4993702;28;19928;-76
2022/02/07 07:42:21;;;;;;;3.20;1.60;;;;;;;-139.48;100.00;61774.03;4992266;28;20049;-76
2022/02/07 07:45:07;;;;;;;7.30;2.45;;;;;;;-139.48;100.00;61774.03;4992029;28;20045;-75
2022/02/07 07:47:57;;;;;;;5.20;1.70;;;;;;;-139.48;100.00;61774.03;4978784;28;20053;-71
2022/02/07 07:51:06;;;;;;;7.30;1.83;;;;;;;-139.48;100.00;61774.03;4992126;28;20049;-70
2022/02/07 07:54:13;;;;;;;10.05;1.98;;;;;;;-139.48;100.00;61774.03;4992980;28;20418;-69
2022/02/07 08:02:57;;;;;;;4.78;2.13;;;;;;;-139.48;100.00;61774.03;4992292;28;20133;-70
2022/02/07 08:05:46;;;;;;;5.72;1.70;;;;;;;-139.48;100.00;61774.03;4993028;28;20101;-71
2022/02/07 08:08:38;;;;;;;5.72;2.30;;;;;;;-139.48;100.00;61774.03;4991980;28;20114;-70
2022/02/07 08:11:22;;;;;;;6.60;1.80;;;;;;;-139.48;100.00;61774.03;4993003;28;20116;-71
2022/02/07 08:14:06;;;;;;;8.25;2.53;;;;;;;-139.48;100.00;61774.03;4991836;28;20071;-71
2022/02/07 08:16:52;;;;;;;6.20;2.00;;;;;;;-139.48;100.00;61774.03;4993166;28;20045;-70
2022/02/07 08:19:41;;;;;;;15.40;2.22;;;;;;;-139.48;100.00;61774.03;4995448;28;20434;-70
2022/02/07 08:22:25;;;;;;;7.05;1.75;;;;;;;-139.48;100.00;61774.03;4996408;28;20139;-70
2022/02/07 08:25:10;;;;;;;5.85;1.85;;;;;;;-139.48;100.00;61774.03;4995057;28;20049;-70
2022/02/07 08:27:54;;;;;;;8.70;1.95;;;;;;;-139.48;100.00;61774.03;4996730;28;20099;-70
2022/02/07 08:30:38;;;;;;;;;;;;;;;-139.48;100.00;61774.03;4982175;28;20049;-70
2022/02/07 08:33:22;;;;;;;6.30;1.90;;;;;;;-139.48;100.00;61774.03;4995375;28;19937;-70
2022/02/07 08:36:06;;;;;;;3.22;1.63;;;;;;;-139.48;100.00;61774.03;4981962;28;20053;-70
2022/02/07 08:38:49;;;;;;;5.28;1.50;;;;;;;-139.48;100.00;61774.03;4996088;28;20045;-70
2022/02/07 08:41:35;;;;;;;;;;;;;;;-139.48;100.00;61774.03;4996706;28;20137;-70
2022/02/07 08:44:18;;;;;;;8.35;2.17;;;;;;;-139.48;100.00;61774.03;4994915;28;19928;-70
2022/02/07 08:47:03;;;;;;;6.50;2.10;;;;;;;-139.48;100.00;61774.03;4996257;28;20045;-71
2022/02/07 08:49:47;;;;;;;8.00;1.95;;;;;;;-139.48;100.00;61774.03;4995078;28;20220;-71
2022/02/07 08:52:31;;;;;;;7.80;2.45;;;;;;;-139.48;100.00;61774.03;4996334;28;20111;-70
2022/02/07 08:55:27;;;;;;;6.93;2.13;;;;;;;-139.48;100.00;61774.03;4994965;28;20053;-71
2022/02/07 08:58:17;;;;;;;7.57;2.13;;;;;;;-139.48;100.00;61774.03;4995035;28;20092;-71
2022/02/07 09:04:10;;;;;;;;;;;;;;;-139.48;100.00;61774.03;4995166;28;20477;-71
2022/02/07 09:09:59;;;;;;;7.25;2.03;;;;;;;-139.48;100.00;61774.03;4985493;28;20112;-72
2022/02/07 09:12:46;;;;;;;6.97;2.00;;;;;;;-139.48;100.00;61774.03;4996019;28;20513;-72
2022/02/07 09:15:46;;;;;;;8.20;2.08;;;;;;;-139.48;100.00;61774.03;4995804;28;20052;-72
2022/02/07 09:18:31;;;;;;;12.63;2.90;;;;;;;-139.48;100.00;61774.03;4994797;28;20065;-76
2022/02/07 09:21:15;;;;;;;8.13;2.33;;;;;;;-139.48;100.00;61774.03;4994581;28;20053;-76
2022/02/07 09:24:00;;;;;;;6.97;2.10;;;;;;;-139.48;100.00;61774.03;4994607;28;20057;-76
2022/02/07 09:26:43;;;;;;;6.80;1.88;;;;;;;-139.48;100.00;61774.03;4994587;28;20107;-75
2022/02/07 09:29:27;;;;;;;;;;;;;;;-139.48;100.00;61774.03;4995373;28;20093;-75
2022/02/07 09:32:11;;;;;;;8.30;1.70;;;;;;;-139.48;100.00;61774.03;4994658;28;19920;-75
2022/02/07 09:34:56;;;;;;;9.05;2.30;;;;;;;-139.48;100.00;61774.03;4994532;28;20076;-75
2022/02/07 09:37:40;;;;;;;8.52;1.80;;;;;;;-139.48;100.00;61774.03;4995505;28;20100;-75
2022/02/07 09:40:25;;;;;;;;;;;;;;;-139.48;100.00;61774.03;4994917;28;20125;-76
2022/02/07 09:43:10;;;;;;;14.18;2.47;;;;;;;-139.48;100.00;61774.03;4995313;28;19921;-76
2022/02/07 09:45:54;;;;;;;9.23;2.05;;;;;;;-139.48;100.00;61774.03;4994122;28;20057;-76
2022/02/07 09:48:40;;;;;;;12.43;2.38;;;;;;;-139.48;100.00;61774.03;4994569;28;20045;-77
2022/02/07 09:51:24;;;;;;;6.38;1.90;;;;;;;-139.48;100.00;61774.03;4994994;28;20053;-76
2022/02/07 09:54:09;;;;;;;11.07;2.45;;;;;;;-139.48;100.00;61774.03;4994556;28;20556;-76
2022/02/07 09:56:54;;;;;;;7.85;2.22;;;;;;;-139.48;100.00;61774.03;4994341;28;20056;-76
2022/02/07 09:59:38;;;;;;;8.10;1.83;;;;;;;-139.48;100.00;61774.03;4993845;28;20096;-76
2022/02/07 10:02:39;;;;;;;10.32;2.38;;;;;;;-139.48;100.00;61774.03;4995679;28;20053;-77
2022/02/07 10:05:26;;;;;;;7.57;1.88;;;;;;;-139.48;100.00;61774.03;4995124;28;20414;-78
2022/02/07 10:08:22;;;;;;;4.47;1.70;;;;;;;-139.48;100.00;61774.03;4995821;28;20044;-77
2022/02/07 10:20:57;;;;;;;7.10;2.42;;;;;;;-139.48;100.00;61774.03;4996407;28;20188;-78
2022/02/07 10:44:48;;;;;;;3.85;1.63;;;;;;;-139.48;100.00;61774.03;4993987;28;20498;-76
2022/02/07 10:47:44;;;;;;;9.18;2.33;;;;;;;-139.48;100.00;61774.03;5023241;23;20060;-70
2022/02/07 10:50:28;;;;;;;6.93;1.90;;;;;;;-139.48;100.00;61774.03;5018552;28;20529;-72
2022/02/07 10:53:12;;;;;;;7.82;1.98;;;;;;;-139.48;100.00;61774.03;5018014;28;20075;-72
2022/02/07 10:55:57;;;;;;;5.85;1.85;;;;;;;-139.48;100.00;61774.03;5018217;28;20045;-72
2022/02/07 10:58:42;;;;;;;8.20;1.70;;;;;;;-139.48;100.00;61774.03;4998570;28;20141;-72
2022/02/07 11:04:48;;;;;;;6.93;2.13;;;;;;;-139.48;100.00;61774.03;4999534;28;20104;-72
2022/02/07 11:07:33;;;;;;;6.43;2.05;;;;;;;-139.48;100.00;61774.03;4986559;28;20041;-72
2022/02/07 11:10:34;;;;;;;6.68;2.25;;;;;;;-139.48;100.00;61774.03;4998205;28;20056;-72
2022/02/07 11:25:39;;;;;;;5.43;1.55;;;;;;;-139.48;100.00;61774.03;5013297;28;20068;-72
2022/02/07 11:28:28;;;;;;;8.93;2.05;;;;;;;-139.48;100.00;61774.03;5012772;28;20036;-71
2022/02/07 11:31:12;;;;;;;7.32;1.80;;;;;;;-139.48;100.00;61774.03;4984454;28;20053;-72
2022/02/07 11:34:03;;;;;;;;;;;;;;;-139.48;100.00;61774.03;4998240;28;20429;-72
2022/02/07 11:36:47;;;;;;;14.93;2.00;;;;;;;-139.48;100.00;61774.03;5011794;28;19963;-72
2022/02/07 11:39:41;;;;;;;5.10;1.70;;;;;;;-139.48;100.00;61774.03;4997774;28;20052;-72
2022/02/07 11:42:25;;;;;;;8.48;2.33;;;;;;;-139.48;100.00;61774.03;4997958;28;20052;-72
2022/02/07 11:45:09;;;;;;;7.07;2.22;;;;;;;-139.48;100.00;61774.03;5012896;28;20460;-72
2022/02/07 11:47:56;;;;;;;12.10;2.30;;;;;;;-139.48;100.00;61774.03;5012606;28;20063;-72
2022/02/07 11:50:44;;;;;;;4.78;1.60;;;;;;;-139.48;100.00;61774.03;4997985;28;20053;-72
2022/02/07 11:53:34;;;;;;;12.88;1.77;;;;;;;-139.48;100.00;61774.03;4988588;28;20096;-72
2022/02/07 11:56:53;;;;;;;6.63;1.70;;;;;;;-139.48;100.00;61774.03;5001937;28;20108;-72
2022/02/07 11:59:40;;;;;;;5.60;2.08;;;;;;;-139.48;100.00;61774.03;5004694;28;20096;-71
2022/02/07 12:02:35;;;;;;;7.80;2.13;;;;;;;-139.48;100.00;61774.03;5001921;28;20457;-72
2022/02/07 12:05:21;;;;;;;4.80;1.90;;;;;;;-139.48;100.00;61774.03;5001918;28;20410;-72
2022/02/07 12:08:22;;;;;;;4.22;1.48;;;;;;;-139.48;100.00;61774.03;5001635;28;20531;-72
2022/02/07 12:11:08;;;;;;;6.45;1.67;;;;;;;-139.48;100.00;61774.03;4987796;28;20100;-72
2022/02/07 12:13:52;;;;;;;4.75;1.50;;;;;;;-139.48;100.00;61774.03;5001530;28;20048;-72
2022/02/07 12:16:44;;;;;;;4.30;1.15;;;;;;;-139.48;100.00;61774.03;5001400;28;20064;-72
2022/02/07 12:19:39;;;;;;;8.70;1.77;;;;;;;-139.48;100.00;61774.03;5001085;28;20041;-72
2022/02/07 12:22:23;;;;;;;21.10;3.88;;;;;;;-139.48;100.00;61774.03;4987636;28;20045;-71
2022/02/07 12:25:11;;;;;;;6.68;1.67;;;;;;;-139.48;100.00;61774.03;4987298;28;20552;-72
2022/02/07 12:28:04;;;;;;;7.47;2.08;;;;;;;-139.48;100.00;61774.03;4988236;28;20053;-72
2022/02/07 12:31:01;;;;;;;8.77;2.20;;;;;;;-139.48;100.00;61774.03;5001404;28;20057;-72
2022/02/07 12:33:53;;;;;;;10.05;1.98;;;;;;;-139.48;100.00;61774.03;5003046;28;20052;-71
2022/02/07 12:36:37;;;;;;;6.47;1.80;;;;;;;-139.48;100.00;61774.03;5015770;28;20144;-71
2022/02/07 12:39:21;;;;;;;8.65;2.10;;;;;;;-139.48;100.00;61774.03;5000804;28;20045;-72
2022/02/07 12:42:07;;;;;;;5.15;2.00;;;;;;;-139.48;100.00;61774.03;5014903;28;20099;-72
2022/02/07 12:44:57;;;;;;;6.35;1.70;;;;;;;-139.48;100.00;61774.03;5000707;28;20053;-72
2022/02/07 12:47:41;;;;;;;5.97;1.75;;;;;;;-139.48;100.00;61774.03;4986988;28;20092;-72
2022/02/07 12:50:27;;;;;;;6.53;3.05;;;;;;;-139.48;100.00;61774.03;5001332;28;20135;-72
2022/02/07 12:53:11;;;;;;;7.72;1.60;;;;;;;-139.48;100.00;61774.03;5015815;28;20097;-72
2022/02/07 12:55:59;;;;;;;10.50;2.08;;;;;;;-139.48;100.00;61774.03;5015651;28;20076;-71
2022/02/07 12:58:44;;;;;;;7.90;2.05;;;;;;;-139.48;100.00;61774.03;5000518;28;20095;-71
2022/02/07 13:01:36;;;;;;;7.00;2.38;;;;;;;-139.48;100.00;61774.03;4986755;28;20073;-71
2022/02/07 13:04:22;;;;;;;8.65;2.10;;;;;;;-139.48;100.00;61774.03;5014238;28;20088;-72
2022/02/07 13:07:08;;;;;;;8.75;2.17;;;;;;;-139.48;100.00;61774.03;5000309;28;20402;-72
2022/02/07 13:09:56;;;;;;;5.07;2.17;;;;;;;-139.48;100.00;61774.03;5000497;28;20064;-72
2022/02/07 13:15:36;;;;;;;5.75;2.35;;;;;;;-139.48;100.00;61774.03;5002065;28;20149;-72
2022/02/07 13:18:21;;;;;;;7.30;1.63;;;;;;;-139.48;100.00;61774.03;5000167;28;20069;-72
2022/02/07 13:21:09;;;;;;;7.95;2.00;;;;;;;-139.48;100.00;61774.03;5000587;28;20475;-71
2022/02/07 13:24:30;;;;;;;8.70;1.80;;;;;;;-139.48;100.00;61774.03;5000577;28;20447;-72
2022/02/07 13:27:16;;;;;;;9.45;2.13;;;;;;;-139.48;100.00;61774.03;5014961;28;20100;-72
2022/02/07 13:30:00;;;;;;;8.73;1.98;;;;;;;-139.48;100.00;61774.03;4986288;28;20044;-72
2022/02/07 13:32:44;;;;;;;5.85;2.00;;;;;;;-139.48;100.00;61774.03;5015370;28;20112;-72
2022/02/07 13:35:36;;;;;;;7.55;1.90;;;;;;;-139.48;100.00;61774.03;5017995;28;20053;-72
2022/02/07 13:38:20;;;;;;;5.05;1.90;;;;;;;-139.48;100.00;61774.03;5017932;28;20048;-72
2022/02/07 13:41:04;;;;;;;7.78;2.28;;;;;;;-139.48;100.00;61774.03;5004080;28;20048;-72
2022/02/07 13:43:48;;;;;;;;;;;;;;;-139.48;100.00;61774.03;5004036;28;20535;-72
2022/02/07 13:46:33;;;;;;;10.80;2.38;;;;;;;-139.48;100.00;61774.03;5013801;28;19923;-71
2022/02/07 13:49:17;;;;;;;10.35;2.30;;;;;;;-139.48;100.00;61774.03;5000003;28;20508;-71
2022/02/07 13:52:01;;;;;;;8.45;3.03;;;;;;;-139.48;100.00;61774.03;4999590;28;20119;-72
2022/02/07 13:54:45;;;;;;;4.03;1.88;;;;;;;-139.48;100.00;61774.03;4999751;28;20052;-71
2022/02/07 13:57:30;;;;;;;8.30;1.80;;;;;;;-139.48;100.00;61774.03;5014177;28;20099;-72
2022/02/07 14:00:15;;;;;;;8.95;2.53;;;;;;;-139.48;100.00;61774.03;4999720;28;20149;-71
2022/02/07 14:03:19;;;;;;;5.32;1.80;;;;;;;-139.48;100.00;61774.03;4986323;28;20149;-71
2022/02/07 14:06:08;;;;;;;7.68;2.10;;;;;;;-139.48;100.00;61774.03;4999540;28;20504;-72
2022/02/07 14:08:57;;;;;;;7.40;1.73;;;;;;;-139.48;100.00;61774.03;5014126;28;20401;-69
2022/02/07 14:11:43;;;;;;;8.05;1.70;;;;;;;-139.48;100.00;61774.03;4999684;28;20052;-71
2022/02/07 14:14:27;;;;;;;7.15;2.38;;;;;;;-139.48;100.00;61774.03;5014032;28;20049;-72
2022/02/07 14:17:11;;;;;;;6.05;1.83;;;;;;;-139.48;100.00;61774.03;5013893;28;20133;-72
2022/02/07 14:19:59;;;;;;;5.70;1.73;;;;;;;-139.48;100.00;61774.03;4999339;28;20103;-71
2022/02/07 14:22:44;;;;;;;6.38;1.70;;;;;;;-139.48;100.00;61774.03;4998855;28;20144;-71
2022/02/07 14:25:29;;;;;;;6.68;2.55;;;;;;;-139.48;100.00;61774.03;5013904;28;20053;-71
2022/02/07 14:28:14;;;;;;;9.45;2.45;;;;;;;-139.48;100.00;61774.03;5013621;28;20513;-72
2022/02/07 14:30:59;;;;;;;4.20;2.00;;;;;;;-139.48;100.00;61774.03;5013625;28;20583;-71
2022/02/07 14:33:42;;;;;;;9.13;2.10;;;;;;;-139.48;100.00;61774.03;4998683;28;20095;-71
2022/02/07 14:36:28;;;;;;;8.55;2.42;;;;;;;-139.48;100.00;61774.03;4998656;28;20084;-71
2022/02/07 14:39:12;;;;;;;9.55;1.92;;;;;;;-139.48;100.00;61774.03;4999030;28;20052;-71
2022/02/07 14:42:00;;;;;;;7.95;2.20;;;;;;;-139.48;100.00;61774.03;4998537;28;20413;-71
2022/02/07 14:44:58;;;;;;;7.57;1.77;;;;;;;-139.48;100.00;61774.03;5013543;28;20119;-71
2022/02/07 14:50:32;;;;;;;4.55;1.85;;;;;;;-139.48;100.00;61774.03;5013645;28;20044;-72
2022/02/07 14:53:15;;;;;;;8.45;2.20;;;;;;;-139.48;100.00;61774.03;4998642;28;20044;-71
2022/02/07 14:56:00;;;;;;;6.38;1.77;;;;;;;-139.48;100.00;61774.03;4998458;28;20129;-71
2022/02/07 14:58:44;;;;;;;8.80;2.05;;;;;;;-139.48;100.00;61774.03;4984558;28;20053;-71
2022/02/07 15:01:28;;;;;;;9.02;2.03;;;;;;;-139.48;100.00;61774.03;5013350;28;20060;-72
2022/02/07 15:04:12;;;;;;;8.27;1.80;;;;;;;-139.48;100.00;61774.03;4998589;28;20060;-68
2022/02/07 15:06:56;;;;;;;9.45;2.40;;;;;;;-139.48;100.00;61774.03;5012920;28;20053;-71
2022/02/07 15:09:40;;;;;;;6.60;1.85;;;;;;;-139.48;100.00;61774.03;4998068;28;20068;-71
2022/02/07 15:12:24;;;;;;;9.15;1.80;;;;;;;-139.48;100.00;61774.03;4998381;28;20075;-72